createdAt,value
2018-05-23T04:07:11.984Z,98.70
2018-05-23T04:09:52.388Z,99.20
2018-05-23T04:21:05.904Z,99.80
2018-05-23T04:32:42.476Z,99.60
2018-05-23T04:35:20.008Z,99.70
2018-05-23T04:37:52.620Z,99.60
2018-05-23T04:40:23.618Z,99.70
2018-05-23T04:48:51.531Z,99.20
2018-05-23T04:51:33.619Z,99.00
2018-05-23T04:54:04.552Z,98.90
2018-05-23T04:56:42.793Z,98.60
2018-05-23T05:02:06.993Z,98.50
2018-05-23T05:04:38.055Z,98.20
2018-05-23T05:07:06.620Z,98.10
2018-05-23T05:09:45.176Z,98.00
2018-05-23T05:12:20.229Z,97.90
2018-05-23T05:15:02.469Z,97.70
2018-05-23T05:17:40.235Z,97.80
2018-05-23T05:20:08.202Z,97.70
2018-05-23T05:22:35.748Z,97.70
2018-05-23T05:25:03.597Z,97.90
2018-05-23T05:27:31.998Z,97.50
2018-05-23T05:29:59.602Z,97.80
2018-05-23T05:32:27.309Z,97.40
2018-05-23T05:34:54.898Z,97.40
2018-05-23T05:37:23.376Z,97.30
2018-05-23T05:39:51.312Z,96.90
2018-05-23T05:42:18.891Z,96.90
2018-05-23T05:44:46.636Z,96.90
2018-05-23T05:47:14.190Z,97.20
2018-05-23T05:49:42.682Z,97.00
2018-05-23T05:52:10.631Z,96.90
2018-05-23T05:54:38.243Z,96.90
2018-05-23T05:57:13.045Z,97.50
2018-05-23T06:00:24.110Z,97.30
2018-05-23T06:02:51.676Z,97.80
2018-05-23T06:05:19.227Z,98.10
2018-05-23T06:07:47.743Z,98.20
2018-05-23T06:10:16.167Z,98.10
2018-05-23T06:12:45.455Z,97.90
2018-05-23T06:15:13.003Z,97.90
2018-05-23T06:17:40.547Z,98.10
2018-05-23T06:20:08.490Z,97.90
2018-05-23T06:22:36.052Z,97.90
2018-05-23T06:25:03.595Z,97.80
2018-05-23T06:27:31.161Z,97.70
2018-05-23T06:29:58.720Z,98.10
2018-05-23T06:32:26.270Z,98.00
2018-05-23T06:34:53.845Z,97.80
2018-05-23T06:37:21.428Z,97.30
2018-05-23T06:39:48.996Z,97.10
2018-05-23T06:42:17.399Z,97.20
2018-05-23T06:44:44.963Z,97.00
2018-05-23T06:47:13.352Z,96.00
2018-05-23T06:49:40.902Z,95.00
2018-05-23T06:52:08.600Z,93.80
2018-05-23T06:54:36.169Z,93.10
2018-05-23T06:57:03.752Z,93.50
2018-05-23T06:59:32.080Z,93.10
2018-05-23T07:01:59.693Z,93.10
2018-05-23T07:04:27.627Z,93.50
2018-05-23T07:06:55.235Z,93.50
2018-05-23T07:09:23.201Z,94.20
2018-05-23T07:11:50.798Z,94.20
2018-05-23T07:14:18.381Z,94.50
2018-05-23T07:16:45.940Z,95.60
2018-05-23T07:19:13.518Z,96.60
2018-05-23T07:21:41.063Z,97.50
2018-05-23T07:24:08.713Z,97.10
2018-05-23T07:26:36.182Z,97.80
2018-05-23T07:29:03.739Z,98.20
2018-05-23T07:31:31.315Z,98.70
2018-05-23T07:33:59.252Z,99.20
2018-05-23T07:36:26.905Z,99.20
2018-05-23T07:38:54.493Z,99.80
2018-05-23T07:41:22.057Z,99.80
2018-05-23T07:43:49.634Z,99.80
2018-05-23T07:46:18.212Z,99.80
2018-05-23T07:48:46.180Z,99.80
2018-05-23T07:51:14.153Z,99.80
2018-05-23T07:53:42.136Z,99.80
2018-05-23T07:56:10.250Z,99.80
2018-05-23T07:58:37.800Z,99.80
2018-05-23T08:01:05.372Z,99.80
2018-05-23T08:03:33.001Z,99.80
2018-05-23T08:06:00.544Z,99.80
2018-05-23T08:08:28.104Z,99.80
2018-05-23T08:10:56.071Z,99.30
2018-05-23T08:13:24.041Z,99.30
2018-05-23T08:15:52.588Z,98.40
2018-05-23T08:18:20.129Z,98.40
2018-05-23T08:20:47.732Z,98.30
2018-05-23T08:23:15.726Z,97.40
2018-05-23T08:25:43.281Z,97.40
2018-05-23T08:28:10.877Z,96.80
2018-05-23T08:30:38.418Z,95.90
2018-05-23T08:33:06.036Z,95.60
2018-05-23T08:35:33.984Z,92.50
2018-05-23T08:38:01.556Z,92.50
2018-05-23T08:40:29.111Z,93.50
2018-05-23T08:42:56.684Z,91.80
2018-05-23T08:45:24.679Z,89.50
2018-05-23T08:47:52.237Z,89.50
2018-05-23T08:50:20.201Z,87.80
2018-05-23T08:52:48.138Z,87.50
2018-05-23T08:55:15.707Z,87.50
2018-05-23T08:57:43.244Z,86.20
2018-05-23T09:00:10.831Z,86.60
2018-05-23T09:02:38.417Z,84.30
2018-05-23T09:05:06.452Z,83.80
2018-05-23T09:07:33.994Z,83.80
2018-05-23T09:10:01.566Z,83.40
2018-05-23T09:12:29.280Z,82.40
2018-05-23T09:14:56.964Z,82.80
2018-05-23T09:17:24.519Z,81.60
2018-05-23T09:19:52.055Z,80.50
2018-05-23T09:22:19.644Z,79.90
2018-05-23T09:24:47.186Z,78.80
2018-05-23T09:27:14.741Z,80.70
2018-05-23T09:29:42.725Z,79.20
2018-05-23T09:32:10.278Z,78.50
2018-05-23T09:34:37.808Z,76.90
2018-05-23T09:37:05.734Z,78.00
2018-05-23T09:39:33.289Z,78.00
2018-05-23T09:42:00.846Z,77.40
2018-05-23T09:44:28.443Z,76.30
2018-05-23T09:46:56.012Z,77.20
2018-05-23T09:49:23.948Z,77.60
2018-05-23T09:51:51.517Z,77.60
2018-05-23T09:54:19.065Z,76.90
2018-05-23T09:56:46.678Z,77.50
2018-05-23T09:59:14.230Z,77.60
2018-05-23T10:01:41.773Z,77.90
2018-05-23T10:04:10.336Z,76.90
2018-05-23T10:06:37.872Z,76.90
2018-05-23T10:09:07.028Z,77.90
2018-05-23T10:11:34.564Z,77.90
2018-05-23T10:14:02.576Z,77.90
2018-05-23T10:16:30.135Z,77.90
2018-05-23T10:18:57.690Z,78.20
2018-05-23T10:21:25.245Z,77.80
2018-05-23T10:23:52.804Z,75.30
2018-05-23T10:26:20.425Z,76.20
2018-05-23T10:28:47.953Z,77.20
2018-05-23T10:31:15.506Z,74.10
2018-05-23T10:33:43.065Z,76.10
2018-05-23T10:36:10.624Z,74.80
2018-05-23T10:38:38.241Z,73.10
2018-05-23T10:41:06.186Z,71.90
2018-05-23T10:43:33.719Z,71.90
2018-05-23T10:46:01.831Z,71.70
2018-05-23T10:48:29.384Z,72.70
2018-05-23T10:50:56.992Z,73.50
2018-05-23T10:53:24.532Z,69.40
2018-05-23T10:55:52.103Z,69.20
2018-05-23T10:58:19.722Z,68.80
2018-05-23T11:00:47.322Z,68.10
2018-05-23T11:03:15.330Z,68.80
2018-05-23T11:05:42.914Z,68.80
2018-05-23T11:08:11.150Z,67.40
2018-05-23T11:10:39.298Z,67.50
2018-05-23T11:13:06.869Z,68.10
2018-05-23T11:15:34.461Z,67.30
2018-05-23T11:18:02.225Z,65.30
2018-05-23T11:20:29.780Z,64.50
2018-05-23T11:22:57.349Z,64.40
2018-05-23T11:25:24.961Z,63.80
2018-05-23T11:27:52.530Z,62.60
2018-05-23T11:30:20.057Z,61.60
2018-05-23T11:32:47.606Z,62.20
2018-05-23T11:35:15.159Z,63.30
2018-05-23T11:37:42.737Z,62.90
2018-05-23T11:40:10.677Z,64.60
2018-05-23T11:42:38.273Z,64.50
2018-05-23T11:45:06.199Z,61.90
2018-05-23T11:47:33.772Z,61.90
2018-05-23T11:50:01.330Z,61.20
2018-05-23T11:52:28.917Z,61.50
2018-05-23T11:54:56.877Z,61.20
2018-05-23T11:57:24.413Z,61.20
2018-05-23T11:59:51.959Z,61.10
2018-05-23T12:02:19.508Z,60.40
2018-05-23T12:04:47.121Z,58.30
2018-05-23T12:07:15.107Z,48.10
2018-05-23T12:09:42.666Z,48.10
2018-05-23T12:12:10.641Z,45.90
2018-05-23T12:14:38.630Z,45.90
2018-05-23T12:17:06.150Z,46.30
2018-05-23T12:19:34.166Z,42.20
2018-05-23T12:22:02.715Z,42.20
2018-05-23T12:24:30.716Z,43.70
2018-05-23T12:26:58.260Z,43.70
2018-05-23T12:29:25.826Z,43.60
2018-05-23T12:31:53.336Z,42.80
2018-05-23T12:34:20.882Z,42.60
2018-05-23T12:36:48.638Z,41.90
2018-05-23T12:39:16.218Z,40.50
2018-05-23T12:41:43.774Z,40.60
2018-05-23T12:44:12.121Z,39.60
2018-05-23T12:46:39.668Z,42.20
2018-05-23T12:49:07.772Z,43.40
2018-05-23T12:51:35.333Z,46.10
2018-05-23T12:54:02.894Z,46.60
2018-05-23T12:56:30.470Z,46.30
2018-05-23T12:58:58.544Z,45.20
2018-05-23T13:01:26.163Z,43.10
2018-05-23T13:03:53.887Z,43.50
2018-05-23T13:06:25.899Z,32.70
2018-05-23T13:08:55.756Z,32.80
2018-05-23T13:11:26.687Z,34.40
2018-05-23T13:13:54.274Z,34.40
2018-05-23T13:16:26.058Z,40.80
2018-05-23T13:18:53.612Z,40.90
2018-05-23T13:21:21.140Z,41.30
2018-05-23T13:23:49.091Z,45.00
2018-05-23T13:26:16.624Z,44.90
2018-05-23T13:28:44.187Z,46.20
2018-05-23T13:31:11.738Z,49.20
2018-05-23T13:33:39.316Z,49.60
2018-05-23T13:36:06.835Z,51.60
2018-05-23T13:38:34.451Z,53.20
2018-05-23T13:41:01.992Z,52.60
2018-05-23T13:43:29.579Z,52.50
2018-05-23T13:45:57.507Z,55.00
2018-05-23T13:48:25.065Z,55.00
2018-05-23T13:50:52.583Z,55.90
2018-05-23T13:53:20.220Z,55.20
2018-05-23T13:55:48.161Z,53.50
2018-05-23T13:58:15.713Z,53.50
2018-05-23T14:00:43.284Z,53.10
2018-05-23T14:03:10.826Z,52.90
2018-05-23T14:05:38.420Z,53.60
2018-05-23T14:08:05.949Z,54.30
2018-05-23T14:10:33.505Z,54.80
2018-05-23T14:13:01.073Z,55.40
2018-05-23T14:15:28.624Z,55.10
2018-05-23T14:17:56.213Z,55.40
2018-05-23T14:20:23.720Z,57.60
2018-05-23T14:22:51.294Z,58.00
2018-05-23T14:25:18.843Z,58.40
2018-05-23T14:27:46.406Z,58.90
2018-05-23T14:30:13.956Z,56.50
2018-05-23T14:32:41.549Z,56.30
2018-05-23T14:35:09.098Z,56.90
2018-05-23T14:37:36.665Z,59.00
2018-05-23T14:40:04.230Z,59.40
2018-05-23T14:42:31.772Z,59.40
2018-05-23T14:44:59.360Z,60.80
2018-05-23T14:47:26.940Z,62.00
2018-05-23T14:49:54.470Z,62.40
2018-05-23T14:52:22.023Z,63.40
2018-05-23T14:54:49.590Z,64.20
2018-05-23T14:57:17.128Z,64.70
2018-05-23T14:59:44.684Z,65.90
2018-05-23T15:02:12.225Z,66.30
2018-05-23T15:04:39.772Z,67.00
2018-05-23T15:07:07.360Z,66.90
2018-05-23T15:09:34.924Z,67.20
2018-05-23T15:12:02.489Z,67.70
2018-05-23T15:14:30.048Z,68.30
2018-05-23T15:16:57.609Z,69.20
2018-05-23T15:19:25.179Z,69.10
2018-05-23T15:21:52.723Z,69.80
2018-05-23T15:24:20.258Z,70.70
2018-05-23T15:26:47.820Z,70.90
2018-05-23T15:29:15.366Z,71.30
2018-05-23T15:31:43.325Z,72.10
2018-05-23T15:34:11.322Z,71.50
2018-05-23T15:36:38.882Z,71.50
2018-05-23T15:39:06.445Z,70.90
2018-05-23T15:41:33.965Z,70.80
2018-05-23T15:44:01.527Z,70.30
2018-05-23T15:46:29.483Z,71.10
2018-05-23T15:48:57.468Z,71.10
2018-05-23T15:51:25.411Z,72.10
2018-05-23T15:53:52.993Z,72.10
2018-05-23T15:56:20.536Z,72.50
2018-05-23T15:58:48.536Z,72.70
2018-05-23T16:01:16.555Z,71.80
2018-05-23T16:03:44.112Z,71.80
2018-05-23T16:06:11.668Z,71.60
2018-05-23T16:08:39.211Z,70.90
2018-05-23T16:11:06.780Z,70.70
2018-05-23T16:13:34.328Z,70.30
2018-05-23T16:16:01.871Z,71.20
2018-05-23T16:18:29.848Z,71.40
2018-05-23T16:20:57.469Z,71.40
2018-05-23T16:23:25.014Z,72.00
2018-05-23T16:25:52.580Z,72.30
2018-05-23T16:28:20.217Z,72.80
2018-05-23T16:30:47.771Z,73.50
2018-05-23T16:33:15.329Z,74.20
2018-05-23T16:35:42.892Z,74.90
2018-05-23T16:38:10.447Z,75.80
2018-05-23T16:40:37.972Z,76.50
2018-05-23T16:43:05.602Z,76.90
2018-05-23T16:45:33.190Z,77.70
2018-05-23T16:48:01.485Z,77.90
2018-05-23T16:50:29.017Z,77.90
2018-05-23T16:52:57.034Z,78.60
2018-05-23T16:55:24.640Z,78.60
2018-05-23T16:57:52.205Z,78.80
2018-05-23T17:00:19.790Z,79.20
2018-05-23T17:02:47.330Z,79.20
2018-05-23T17:05:15.306Z,79.40
2018-05-23T17:07:43.266Z,79.70
2018-05-23T17:10:11.192Z,80.00
2018-05-23T17:12:38.807Z,80.00
2018-05-23T17:15:06.953Z,80.20
2018-05-23T17:17:34.534Z,80.20
2018-05-23T17:20:02.536Z,80.40
2018-05-23T17:22:30.100Z,80.40
2018-05-23T17:24:59.689Z,80.40
2018-05-23T17:27:28.638Z,80.60
2018-05-23T17:29:56.635Z,80.70
2018-05-23T17:32:24.248Z,80.40
2018-05-23T17:34:51.855Z,80.30
2018-05-23T17:37:19.832Z,80.40
2018-05-23T17:39:47.378Z,80.40
2018-05-23T17:42:15.340Z,80.90
2018-05-23T17:44:42.926Z,80.90
2018-05-23T17:47:11.765Z,80.60
2018-05-23T17:49:39.304Z,80.60
2018-05-23T17:52:06.893Z,80.30
2018-05-23T17:54:34.456Z,79.40
2018-05-23T17:57:02.058Z,79.10
2018-05-23T17:59:29.592Z,79.10
2018-05-23T18:01:57.175Z,78.90
2018-05-23T18:04:25.119Z,78.50
2018-05-23T18:06:52.748Z,78.40
2018-05-23T18:09:20.320Z,78.20
2018-05-23T18:11:47.896Z,78.30
2018-05-23T18:14:15.464Z,78.50
2018-05-23T18:16:43.072Z,78.50
2018-05-23T18:19:10.556Z,78.80
2018-05-23T18:21:38.105Z,78.90
2018-05-23T18:24:05.719Z,78.60
2018-05-23T18:26:33.683Z,78.90
2018-05-23T18:29:01.628Z,78.80
2018-05-23T18:31:29.201Z,78.80
2018-05-23T18:33:56.756Z,78.90
2018-05-23T18:36:24.339Z,78.90
2018-05-23T18:38:51.900Z,79.40
2018-05-23T18:41:19.510Z,79.50
2018-05-23T18:43:48.249Z,80.20
2018-05-23T19:38:06.254Z,84.80
2018-05-23T19:40:33.829Z,84.80
2018-05-23T19:43:01.423Z,84.70
2018-05-23T19:45:29.006Z,85.00
2018-05-23T19:47:56.606Z,85.10
2018-05-23T19:50:24.206Z,85.20
2018-05-23T19:52:53.623Z,85.30
2018-05-23T19:55:23.415Z,85.10
2018-05-23T19:57:51.405Z,85.20
2018-05-23T20:00:20.808Z,85.20
2018-05-23T20:02:53.900Z,85.10
2018-05-23T20:05:21.684Z,85.10
2018-05-23T20:07:49.462Z,85.10
2018-05-23T20:10:17.044Z,85.10
2018-05-23T20:12:46.451Z,85.00
2018-05-23T20:15:15.225Z,85.10
2018-05-23T20:17:43.559Z,85.10
2018-05-23T20:20:11.593Z,85.40
2018-05-23T20:22:39.926Z,85.40
2018-05-23T20:25:07.476Z,85.30
2018-05-23T20:27:35.191Z,85.50
2018-05-23T20:30:02.956Z,85.20
2018-05-23T20:32:33.481Z,84.40
2018-05-23T20:35:04.848Z,83.90
2018-05-23T20:37:33.302Z,83.70
2018-05-23T20:40:00.960Z,83.80
2018-05-23T20:42:29.436Z,83.30
2018-05-23T20:44:57.113Z,83.20
2018-05-23T20:47:26.323Z,83.30
2018-05-23T20:49:53.953Z,83.20
2018-05-23T20:52:21.529Z,83.20
2018-05-23T20:54:50.550Z,83.10
2018-05-23T20:57:19.952Z,82.70
2018-05-23T20:59:48.025Z,82.80
2018-05-23T21:02:16.975Z,82.20
2018-05-23T21:04:44.601Z,82.20
2018-05-23T21:07:12.554Z,82.00
2018-05-23T21:09:42.023Z,81.60
2018-05-23T21:12:10.852Z,81.60
2018-05-23T21:14:41.125Z,81.80
2018-05-23T21:17:10.463Z,81.80
2018-05-23T21:19:38.041Z,81.60
2018-05-23T21:22:08.825Z,81.00
2018-05-23T21:24:37.319Z,81.00
2018-05-23T21:27:04.884Z,80.60
2018-05-23T21:29:32.511Z,80.10
2018-05-23T21:32:00.737Z,79.90
2018-05-23T21:34:28.340Z,79.50
2018-05-23T21:36:57.227Z,79.10
2018-05-23T21:39:26.213Z,79.20
2018-05-23T21:41:54.585Z,79.10
2018-05-23T21:46:57.816Z,79.40
2018-05-23T21:49:26.271Z,79.70
2018-05-23T21:51:55.153Z,80.10
2018-05-23T21:54:27.578Z,80.70
2018-05-23T21:56:55.271Z,81.10
2018-05-23T21:59:23.245Z,81.50
2018-05-23T22:01:51.966Z,81.80
2018-05-23T22:04:22.100Z,82.20
2018-05-23T22:06:50.529Z,81.80
2018-05-23T22:09:20.179Z,81.30
2018-05-23T22:11:49.805Z,81.10
2018-05-23T22:14:17.923Z,80.90
2018-05-23T22:16:50.091Z,80.80
2018-05-23T22:19:19.166Z,81.00
2018-05-23T22:21:49.293Z,81.20
2018-05-23T22:24:16.868Z,81.70
2018-05-23T22:26:45.297Z,82.60
2018-05-23T22:29:13.741Z,82.60
2018-05-23T22:31:41.760Z,83.70
2018-05-23T22:34:14.545Z,83.70
2018-05-23T22:36:42.204Z,84.10
2018-05-23T22:39:10.937Z,84.60
2018-05-23T22:41:39.870Z,85.10
2018-05-23T22:44:07.652Z,85.10
2018-05-23T22:46:35.507Z,85.40
2018-05-23T22:49:04.119Z,85.80
2018-05-23T22:51:32.481Z,85.90
2018-05-23T22:54:01.119Z,86.20
2018-05-23T22:56:30.848Z,86.80
2018-05-23T22:58:58.430Z,86.80
2018-05-23T23:01:26.148Z,87.10
2018-05-23T23:03:55.544Z,87.70
2018-05-23T23:06:23.317Z,87.70
2018-05-23T23:08:52.045Z,87.90
2018-05-23T23:11:22.219Z,88.00
2018-05-23T23:13:51.089Z,87.90
2018-05-23T23:16:18.641Z,87.90
2018-05-23T23:18:48.454Z,87.70
2018-05-23T23:21:16.042Z,87.70
2018-05-23T23:23:47.236Z,87.70
2018-05-23T23:26:14.969Z,87.60
2018-05-23T23:28:43.163Z,87.50
2018-05-23T23:31:11.989Z,87.50
2018-05-23T23:33:41.362Z,87.60
2018-05-23T23:36:11.460Z,87.80
2018-05-23T23:38:39.975Z,87.70
2018-05-23T23:41:07.539Z,87.80
2018-05-23T23:43:35.941Z,87.90
2018-05-23T23:46:04.434Z,88.00
2018-05-23T23:48:32.827Z,88.20
2018-05-23T23:51:01.106Z,88.40
2018-05-23T23:53:28.759Z,88.60
2018-05-23T23:55:56.917Z,88.60
2018-05-23T23:58:24.791Z,88.60
